Time;durP1;ratioP1;P1;durP2;ratioP2;P2;SDS_P1;SDS_P2;PMS_P1;PMS_P2;Temp;Humidity;BMP_temperature;BMP_pressure;BME280_temperature;BME280_humidity;BME280_pressure;Samples;Min_cycle;Max_cycle;Signal;HPM_P1;HPM_P2
2021/04/21 00:01:45;;;;;;;20.32;15.90;;;;;;;10.93;63.63;99971.78;1822527;76;25725;-78
2021/04/21 00:04:14;;;;;;;22.73;16.90;;;;;;;10.90;63.58;99962.98;1822246;76;25783;-78
2021/04/21 00:06:41;;;;;;;20.97;15.40;;;;;;;10.88;63.73;99962.34;1793269;77;25723;-78
2021/04/21 00:09:15;;;;;;;20.27;15.75;;;;;;;10.83;63.82;99958.13;1819072;76;26390;-78
2021/04/21 00:11:43;;;;;;;22.48;16.35;;;;;;;10.80;63.85;99952.79;1818483;76;25313;-78
2021/04/21 00:14:16;;;;;;;24.57;16.45;;;;;;;10.78;64.09;99948.72;1818836;76;26528;-78
2021/04/21 00:16:40;;;;;;;23.42;16.48;;;;;;;10.75;64.27;99947.27;1817540;76;26567;-78
2021/04/21 00:19:06;;;;;;;26.30;17.60;;;;;;;10.72;64.20;99942.40;1785812;78;26977;-78
2021/04/21 00:21:33;;;;;;;25.43;18.00;;;;;;;10.72;64.23;99938.48;1822411;76;26717;-78
2021/04/21 00:24:03;;;;;;;23.20;17.07;;;;;;;10.71;64.53;99938.14;1817928;76;25808;-78
2021/04/21 00:26:30;;;;;;;22.30;17.27;;;;;;;10.70;64.50;99942.25;1822777;76;25934;-74
2021/04/21 00:28:56;;;;;;;25.40;16.37;;;;;;;10.66;64.55;99934.74;1790302;78;25645;-74
2021/04/21 00:31:24;;;;;;;25.00;17.20;;;;;;;10.65;64.66;99934.94;1822529;76;25694;-74
2021/04/21 00:33:58;;;;;;;25.23;16.20;;;;;;;10.63;64.75;99927.75;1826921;76;26691;-71
2021/04/21 00:36:26;;;;;;;23.70;16.75;;;;;;;10.66;64.81;99930.02;1820368;76;26592;-76
2021/04/21 00:38:55;;;;;;;22.00;15.93;;;;;;;10.70;64.78;99927.88;1790411;78;25610;-77
2021/04/21 00:41:54;;;;;;;23.27;17.25;;;;;;;10.74;64.79;99923.91;1823575;76;25631;-77
2021/04/21 00:45:04;;;;;;;23.90;17.55;;;;;;;10.78;64.76;99927.31;1828540;76;25654;-76
2021/04/21 00:47:48;;;;;;;23.05;17.95;;;;;;;10.75;64.70;99928.98;1819011;76;32511;-72
2021/04/21 00:50:27;;;;;;;27.60;17.25;;;;;;;10.79;64.80;99930.73;1817849;76;26433;-73
2021/04/21 00:53:01;;;;;;;24.43;18.25;;;;;;;10.81;64.85;99933.99;1819215;76;25967;-72
2021/04/21 00:55:54;;;;;;;24.40;17.70;;;;;;;10.80;64.91;99927.95;1797201;76;25765;-73
2021/04/21 00:58:45;;;;;;;23.85;17.07;;;;;;;10.79;65.00;99920.27;1816619;76;25757;-73
2021/04/21 01:01:13;;;;;;;23.65;18.50;;;;;;;10.76;64.95;99920.63;1817733;76;25878;-72
2021/04/21 01:03:41;;;;;;;27.07;18.62;;;;;;;10.71;64.89;99922.46;1817719;76;25398;-73
2021/04/21 01:06:18;;;;;;;27.73;19.10;;;;;;;10.66;64.92;99920.36;1821766;76;26587;-73
2021/04/21 01:08:51;;;;;;;23.87;18.35;;;;;;;10.62;65.02;99919.11;1821636;76;25915;-73
2021/04/21 01:11:34;;;;;;;26.70;17.90;;;;;;;10.58;65.11;99923.05;1790417;78;26347;-73
2021/04/21 01:14:08;;;;;;;25.27;18.25;;;;;;;10.56;65.26;99911.17;1790526;77;25691;-73
2021/04/21 01:16:37;;;;;;;24.45;17.07;;;;;;;10.50;65.30;99907.43;1817306;76;25819;-73
2021/04/21 01:19:08;;;;;;;31.05;18.52;;;;;;;10.47;65.41;99906.48;1818518;76;25830;-77
2021/04/21 01:21:42;;;;;;;27.17;17.65;;;;;;;10.52;65.62;99908.58;1817014;76;25792;-77
2021/04/21 01:24:43;;;;;;;25.02;16.97;;;;;;;10.58;65.68;99902.14;1816792;76;25714;-77
2021/04/21 01:27:12;;;;;;;22.52;16.57;;;;;;;10.61;65.56;99915.34;1822459;76;25881;-77
2021/04/21 01:29:54;;;;;;;28.45;19.32;;;;;;;10.52;65.42;99915.92;1821687;76;26357;-77
2021/04/21 01:32:30;;;;;;;24.98;18.20;;;;;;;10.50;65.62;99913.16;1818673;76;25839;-77
2021/04/21 01:34:58;;;;;;;24.90;18.67;;;;;;;10.46;65.67;99915.81;1822019;76;25757;-77
2021/04/21 01:37:31;;;;;;;27.70;20.68;;;;;;;10.37;65.88;99915.88;1821595;76;25328;-77
2021/04/21 01:40:11;;;;;;;26.33;19.17;;;;;;;10.29;66.13;99921.66;1820401;76;25697;-73
2021/04/21 01:42:41;;;;;;;27.15;19.67;;;;;;;10.20;66.28;99917.77;1819074;76;26494;-73
2021/04/21 01:45:12;;;;;;;28.47;21.25;;;;;;;10.17;66.63;99919.39;1819624;76;26428;-73
2021/04/21 01:47:37;;;;;;;;;;;;;;;10.14;66.65;99913.71;1825685;76;25666;-73
2021/04/21 01:50:06;;;;;;;31.73;21.00;;;;;;;10.09;67.01;99917.33;1819582;76;26455;-73
2021/04/21 01:52:52;;;;;;;28.02;20.57;;;;;;;10.07;66.95;99926.66;1816263;76;26492;-73
2021/04/21 01:55:53;;;;;;;29.25;20.92;;;;;;;10.05;67.02;99925.20;1815448;76;25982;-73
2021/04/21 01:58:37;;;;;;;32.23;20.30;;;;;;;10.01;67.18;99918.19;1817962;76;25791;-73
2021/04/21 02:01:34;;;;;;;30.88;20.02;;;;;;;9.99;67.45;99922.29;1818311;76;26019;-72
2021/04/21 02:04:38;;;;;;;30.70;21.57;;;;;;;9.97;67.56;99922.95;1820679;76;25820;-78
2021/04/21 02:07:52;;;;;;;28.95;20.90;;;;;;;9.96;67.73;99919.22;1817183;76;26483;-76
2021/04/21 02:10:42;;;;;;;30.97;22.67;;;;;;;9.96;67.89;99915.30;1820243;76;25723;-77
2021/04/21 02:13:59;;;;;;;30.27;21.17;;;;;;;9.92;68.13;99916.62;1826660;76;25763;-78
2021/04/21 02:16:40;;;;;;;35.70;24.05;;;;;;;9.91;68.21;99916.31;1817813;76;25797;-78
2021/04/21 02:19:30;;;;;;;32.65;25.05;;;;;;;9.94;68.45;99922.48;1816309;76;25759;-75
2021/04/21 02:22:14;;;;;;;38.55;27.10;;;;;;;9.89;68.40;99915.16;1818373;76;25666;-77
2021/04/21 02:25:00;;;;;;;30.70;23.83;;;;;;;9.87;68.64;99910.59;1809254;76;25709;-77
2021/04/21 02:28:06;;;;;;;32.93;23.70;;;;;;;9.87;68.97;99908.48;1815672;76;25687;-77
2021/04/21 02:30:54;;;;;;;41.20;26.10;;;;;;;9.86;68.94;99912.90;1819068;76;25649;-76
2021/04/21 02:33:37;;;;;;;37.53;27.67;;;;;;;9.89;69.02;99906.02;1819212;76;25639;-77
2021/04/21 02:36:09;;;;;;;29.98;26.20;;;;;;;9.90;69.12;99914.20;1820171;76;25302;-78
2021/04/21 02:39:04;;;;;;;38.92;26.87;;;;;;;9.89;69.23;99909.13;1819344;76;25755;-78
2021/04/21 02:41:44;;;;;;;33.83;27.77;;;;;;;9.88;69.51;99905.72;1822143;76;26626;-77
2021/04/21 02:44:20;;;;;;;;;;;;;;;9.88;69.54;99912.24;1821496;76;26466;-77
2021/04/21 02:47:22;;;;;;;36.75;28.70;;;;;;;9.89;69.68;99898.20;1818427;76;25716;-77
2021/04/21 02:50:00;;;;;;;34.95;28.80;;;;;;;9.89;69.86;99901.30;1786255;77;46488;-77
2021/04/21 02:53:02;;;;;;;42.45;30.82;;;;;;;9.87;70.07;99892.82;1817593;76;25732;-78
2021/04/21 02:56:21;;;;;;;40.78;29.85;;;;;;;9.85;70.20;99883.03;1818770;76;26590;-74
2021/04/21 02:59:21;;;;;;;38.48;29.52;;;;;;;9.91;70.57;99883.67;1816526;76;26042;-73
2021/04/21 03:01:55;;;;;;;39.08;28.85;;;;;;;9.90;71.05;99885.48;1819239;76;34006;-73
2021/04/21 03:05:02;;;;;;;37.17;27.90;;;;;;;9.84;70.91;99882.23;1819769;76;25779;-73
2021/04/21 03:07:59;;;;;;;37.85;29.35;;;;;;;9.90;71.18;99883.34;1820335;76;26519;-73
2021/04/21 03:10:40;;;;;;;35.10;27.13;;;;;;;9.99;71.46;99874.48;1791872;76;25852;-73
2021/04/21 03:13:16;;;;;;;36.75;27.02;;;;;;;9.97;71.36;99875.14;1820347;76;25612;-73
2021/04/21 03:15:56;;;;;;;37.10;24.80;;;;;;;9.94;71.67;99874.19;1789381;76;25785;-73
2021/04/21 03:18:22;;;;;;;;;;;;;;;9.89;71.65;99878.61;1822211;76;26578;-77
2021/04/21 03:20:54;;;;;;;35.55;24.72;;;;;;;9.84;71.87;99876.20;1791836;78;25724;-77
2021/04/21 03:23:22;;;;;;;32.73;25.43;;;;;;;9.78;72.19;99879.01;1819773;76;25934;-77
2021/04/21 03:25:52;;;;;;;32.15;25.25;;;;;;;9.73;72.16;99879.52;1817646;76;25718;-77
2021/04/21 03:28:21;;;;;;;33.30;25.90;;;;;;;9.70;72.50;99882.97;1797183;76;25930;-77
2021/04/21 03:30:55;;;;;;;36.65;27.55;;;;;;;9.66;72.55;99883.81;1817492;76;25654;-77
2021/04/21 03:33:36;;;;;;;34.20;27.37;;;;;;;9.66;72.62;99896.05;1818236;76;25827;-77
2021/04/21 03:36:02;;;;;;;;;;;;;;;9.70;72.71;99890.30;1818123;76;25722;-78
2021/04/21 03:38:29;;;;;;;32.98;27.62;;;;;;;9.73;72.89;99914.74;1817418;76;25812;-78
2021/04/21 03:40:55;;;;;;;37.85;26.70;;;;;;;9.73;72.76;99911.33;1789804;76;25918;-78
2021/04/21 03:43:22;;;;;;;36.13;25.75;;;;;;;9.73;72.89;99920.46;1818364;76;25706;-78
2021/04/21 03:45:50;;;;;;;39.95;26.73;;;;;;;9.71;73.10;99914.59;1822871;76;25895;-78
2021/04/21 03:48:17;;;;;;;39.10;27.22;;;;;;;9.68;73.17;99907.91;1818665;76;25864;-78
2021/04/21 03:50:46;;;;;;;37.67;27.50;;;;;;;9.66;73.07;99916.43;1821897;76;25873;-78
2021/04/21 03:53:14;;;;;;;34.63;26.07;;;;;;;9.65;73.33;99912.17;1754926;78;25773;-78
2021/04/21 03:55:40;;;;;;;37.55;27.13;;;;;;;9.64;73.38;99918.38;1823223;76;25690;-78
2021/04/21 03:58:12;;;;;;;40.63;27.50;;;;;;;9.65;73.38;99914.78;1821018;76;25686;-74
2021/04/21 04:00:41;;;;;;;37.63;27.20;;;;;;;9.65;73.36;99913.97;1827615;76;26326;-74
2021/04/21 04:03:17;;;;;;;36.38;26.55;;;;;;;9.65;73.37;99912.17;1837440;76;25893;-73
2021/04/21 04:05:46;;;;;;;36.45;26.35;;;;;;;9.67;73.45;99912.02;1809221;76;25761;-72
2021/04/21 04:08:16;;;;;;;38.23;28.80;;;;;;;9.67;73.65;99900.27;1835932;76;25704;-72
2021/04/21 04:10:51;;;;;;;35.85;27.05;;;;;;;9.64;73.86;99894.09;1801175;77;25725;-72
2021/04/21 04:13:19;;;;;;;33.95;25.43;;;;;;;9.64;74.17;99892.79;1822703;76;25829;-74
2021/04/21 04:15:49;;;;;;;33.20;25.40;;;;;;;9.58;74.32;99900.00;1823479;76;25780;-74
2021/04/21 04:18:15;;;;;;;;;;;;;;;9.55;74.41;99899.84;1825384;76;26510;-74
2021/04/21 04:23:25;;;;;;;34.78;24.47;;;;;;;9.59;75.20;99906.34;1873217;75;34706;-72
2021/04/21 04:25:53;;;;;;;34.63;25.55;;;;;;;9.48;75.00;99897.09;1848696;75;25924;-73
2021/04/21 04:28:19;;;;;;;32.33;24.95;;;;;;;9.45;75.58;99907.86;1850313;75;25569;-73
2021/04/21 04:30:46;;;;;;;33.27;24.80;;;;;;;9.40;75.55;99906.25;1813799;76;26541;-77
2021/04/21 04:33:16;;;;;;;31.02;23.52;;;;;;;9.39;75.43;99907.23;1849309;75;25815;-77
2021/04/21 04:35:42;;;;;;;32.73;23.70;;;;;;;9.40;75.37;99906.25;1847607;75;25701;-77
2021/04/21 04:38:09;;;;;;;35.63;25.45;;;;;;;9.43;75.52;99909.01;1846085;75;25761;-77
2021/04/21 04:40:35;;;;;;;32.48;25.37;;;;;;;9.43;75.42;99908.52;1814741;75;26358;-77
2021/04/21 04:43:01;;;;;;;29.95;24.15;;;;;;;9.49;75.40;99903.11;1847476;75;25644;-73
2021/04/21 04:45:30;;;;;;;35.98;24.37;;;;;;;9.52;75.39;99901.47;1847323;75;25686;-73
2021/04/21 04:48:01;;;;;;;29.12;23.83;;;;;;;9.54;75.36;99904.72;1848704;77;25706;-73
2021/04/21 04:50:30;;;;;;;32.03;24.18;;;;;;;9.61;75.32;99912.70;1848230;75;25732;-73
2021/04/21 04:52:59;;;;;;;31.17;23.42;;;;;;;9.64;75.71;99912.36;1849199;75;26687;-73
2021/04/21 04:55:28;;;;;;;32.15;24.25;;;;;;;9.65;75.27;99917.39;1850242;76;25766;-73
2021/04/21 04:57:56;;;;;;;31.77;22.85;;;;;;;9.71;75.29;99909.37;1848796;75;25768;-73
2021/04/21 05:00:27;;;;;;;30.25;23.65;;;;;;;9.74;75.10;99916.39;1813420;77;25854;-74
2021/04/21 05:03:01;;;;;;;38.78;27.98;;;;;;;9.73;75.02;99905.61;1809406;77;25709;-74
2021/04/21 05:05:28;;;;;;;33.55;25.77;;;;;;;9.75;74.97;99906.76;1782687;78;25736;-73
2021/04/21 05:08:13;;;;;;;33.10;25.20;;;;;;;9.74;74.94;99904.64;1806935;77;25875;-74
2021/04/21 05:10:53;;;;;;;34.13;26.62;;;;;;;9.76;74.99;99906.57;1782654;78;26466;-73
2021/04/21 05:13:24;;;;;;;37.38;27.93;;;;;;;9.82;75.01;99903.80;1781953;78;26442;-78
2021/04/21 05:15:55;;;;;;;34.38;26.73;;;;;;;9.83;74.83;99899.38;1781499;78;25843;-78
2021/04/21 05:18:27;;;;;;;38.42;26.97;;;;;;;9.85;74.73;99911.75;1780169;78;27001;-77
2021/04/21 05:21:35;;;;;;;46.08;28.35;;;;;;;9.88;74.73;99909.63;1781337;78;25792;-78
2021/04/21 05:24:43;;;;;;;35.88;25.35;;;;;;;9.89;74.67;99906.02;1781444;78;25721;-78
2021/04/21 05:28:06;;;;;;;31.30;23.50;;;;;;;9.92;74.63;99907.48;1779753;78;25694;-78
2021/04/21 05:30:55;;;;;;;34.83;24.55;;;;;;;9.89;74.52;99913.86;1781700;78;26546;-78
2021/04/21 05:34:17;;;;;;;30.35;24.32;;;;;;;9.89;74.48;99907.83;1701409;82;25853;-78
2021/04/21 05:37:14;;;;;;;32.95;25.23;;;;;;;9.95;74.74;99911.05;1733424;81;26377;-78
2021/04/21 05:40:03;;;;;;;31.10;24.63;;;;;;;10.02;74.63;99909.89;1735507;81;25755;-78
2021/04/21 05:43:04;;;;;;;34.63;25.48;;;;;;;10.06;74.58;99908.54;1736702;81;25810;-78
2021/04/21 05:46:21;;;;;;;31.62;24.40;;;;;;;10.10;74.57;99908.53;1718860;82;25820;-78
2021/04/21 05:49:21;;;;;;;30.23;23.07;;;;;;;10.15;74.39;99909.64;1666655;84;26437;-78
2021/04/21 05:52:15;;;;;;;31.33;22.95;;;;;;;10.23;74.53;99914.00;1666512;84;26551;-77
2021/04/21 05:55:09;;;;;;;32.70;24.57;;;;;;;10.23;74.57;99914.80;1644164;85;26578;-73
2021/04/21 05:58:00;;;;;;;32.55;23.02;;;;;;;10.27;74.41;99912.68;1643939;85;26528;-73
2021/04/21 06:01:16;;;;;;;33.50;24.43;;;;;;;10.33;74.37;99906.75;1610335;87;25401;-73
2021/04/21 06:03:46;;;;;;;27.05;21.97;;;;;;;10.40;74.40;99906.88;1614193;87;25778;-73
2021/04/21 06:06:13;;;;;;;29.07;23.90;;;;;;;10.53;74.46;99910.19;1614592;87;26104;-73
2021/04/21 06:08:39;;;;;;;37.25;23.42;;;;;;;10.58;73.85;99907.37;1586650;88;25852;-73
2021/04/21 06:11:18;;;;;;;31.52;23.95;;;;;;;10.60;73.94;99915.05;1634416;85;25790;-73
2021/04/21 06:13:45;;;;;;;27.62;21.62;;;;;;;10.64;74.11;99911.10;1664946;84;25859;-77
2021/04/21 06:16:16;;;;;;;31.97;22.25;;;;;;;10.71;73.83;99913.31;1665583;84;25698;-77
2021/04/21 06:18:42;;;;;;;31.35;22.75;;;;;;;10.71;73.56;99911.20;1632762;86;25849;-77
2021/04/21 06:21:22;;;;;;;27.00;19.77;;;;;;;10.71;73.48;99909.39;1662930;84;25743;-77
2021/04/21 06:23:49;;;;;;;32.95;23.87;;;;;;;10.69;73.30;99906.63;1670536;84;25955;-78
2021/04/21 06:26:23;;;;;;;30.10;23.75;;;;;;;10.71;73.47;99909.39;1718215;82;25865;-77
2021/04/21 06:29:01;;;;;;;33.00;24.43;;;;;;;10.81;73.55;99908.66;1700366;83;25779;-78
2021/04/21 06:31:49;;;;;;;30.02;23.05;;;;;;;10.93;73.55;99901.68;1734553;78;25882;-77
2021/04/21 06:34:16;;;;;;;28.35;22.25;;;;;;;11.04;73.22;99903.85;1792647;78;26460;-74
2021/04/21 06:36:50;;;;;;;29.45;21.95;;;;;;;11.11;72.82;99902.16;1781476;78;25748;-74
2021/04/21 06:39:22;;;;;;;31.20;22.70;;;;;;;11.16;72.74;99900.28;1786123;78;25750;-73
2021/04/21 06:42:00;;;;;;;31.35;22.45;;;;;;;11.22;72.72;99892.55;1785837;79;26692;-74
2021/04/21 06:44:47;;;;;;;26.95;22.05;;;;;;;11.32;72.67;99899.63;1811294;78;25782;-78
2021/04/21 06:47:28;;;;;;;25.20;20.08;;;;;;;11.33;71.98;99899.94;1786375;78;25741;-75
2021/04/21 06:50:11;;;;;;;28.65;19.67;;;;;;;11.33;71.90;99897.83;1787736;78;26161;-73
2021/04/21 06:52:41;;;;;;;25.30;18.40;;;;;;;11.37;71.94;99898.27;1782811;78;25754;-81
2021/04/21 06:55:09;;;;;;;;;;;;;;;11.45;71.94;99897.67;1816518;77;26537;-80
2021/04/21 06:57:35;;;;;;;32.50;20.92;;;;;;;11.56;71.89;99901.13;1812363;77;25312;-77
2021/04/21 07:00:11;;;;;;;31.63;21.60;;;;;;;11.64;71.39;99897.59;1785450;78;27482;-80
2021/04/21 07:02:54;;;;;;;28.80;18.98;;;;;;;11.75;71.41;99896.31;1786838;78;25728;-83
2021/04/21 07:05:37;;;;;;;28.77;18.05;;;;;;;11.87;71.02;99899.32;1793919;78;25767;-79
2021/04/21 07:08:19;;;;;;;24.90;17.37;;;;;;;11.98;70.76;99891.78;1806688;78;26425;-80
2021/04/21 07:10:55;;;;;;;26.77;18.48;;;;;;;12.05;70.68;99893.14;1788782;79;25332;-81
2021/04/21 07:13:29;;;;;;;22.67;18.23;;;;;;;12.15;70.59;99889.73;1784761;79;25777;-82
2021/04/21 07:15:58;;;;;;;29.00;19.25;;;;;;;12.26;70.08;99897.59;1784824;79;25456;-77
2021/04/21 07:18:32;;;;;;;23.85;18.60;;;;;;;12.37;70.08;99896.28;1819359;77;25511;-83
2021/04/21 07:21:01;;;;;;;23.35;18.32;;;;;;;12.50;68.92;99899.02;1817355;77;25717;-78
2021/04/21 07:23:28;;;;;;;28.80;18.80;;;;;;;12.55;68.57;99897.95;1814272;77;26576;-73
2021/04/21 07:25:55;;;;;;;26.68;19.02;;;;;;;12.56;68.12;99895.63;1814243;77;25272;-74
2021/04/21 07:28:24;;;;;;;24.67;19.65;;;;;;;12.55;68.39;99895.81;1810719;77;25791;-79
2021/04/21 07:30:53;;;;;;;27.98;20.05;;;;;;;12.58;68.07;99897.58;1784365;78;25789;-80
2021/04/21 07:33:36;;;;;;;23.97;18.83;;;;;;;12.55;68.01;99897.95;1811053;77;26419;-79
2021/04/21 07:36:23;;;;;;;26.70;19.52;;;;;;;12.59;67.93;99901.80;1775788;79;25918;-79
2021/04/21 07:38:53;;;;;;;29.87;21.52;;;;;;;12.69;68.20;99900.69;1781522;78;25339;-78
2021/04/21 07:41:40;;;;;;;;;;;;;;;12.75;67.75;99899.41;1814752;78;25374;-79
2021/04/21 07:44:27;;;;;;;33.13;23.07;;;;;;;12.73;67.80;99903.23;1776615;80;25260;-72
2021/04/21 07:47:13;;;;;;;30.00;21.77;;;;;;;12.59;67.26;99905.73;1812337;77;26510;-79
2021/04/21 07:49:47;;;;;;;32.35;22.02;;;;;;;12.53;67.44;99911.75;1782342;79;25722;-76
2021/04/21 07:52:27;;;;;;;29.42;23.47;;;;;;;12.44;67.37;99912.38;1808037;78;25766;-84
2021/04/21 07:55:10;;;;;;;28.60;21.82;;;;;;;12.38;67.88;99917.55;1801564;77;25728;-83
2021/04/21 07:57:39;;;;;;;30.45;22.45;;;;;;;12.37;68.14;99916.73;1780845;78;26008;-78
2021/04/21 08:00:10;;;;;;;27.30;20.60;;;;;;;12.34;68.06;99911.88;1778677;78;26363;-76
2021/04/21 08:02:39;;;;;;;24.60;19.73;;;;;;;12.31;68.18;99908.83;1810451;78;25693;-77
2021/04/21 08:05:14;;;;;;;29.12;19.55;;;;;;;12.28;68.16;99911.83;1812132;78;26608;-78
2021/04/21 08:07:42;;;;;;;32.33;20.88;;;;;;;12.25;68.08;99918.73;1794980;78;25280;-80
2021/04/21 08:10:23;;;;;;;30.32;22.27;;;;;;;12.16;68.32;99919.35;1766259;79;26517;-80
2021/04/21 08:12:51;;;;;;;23.98;19.98;;;;;;;12.07;69.02;99915.23;1787721;78;25793;-78
2021/04/21 08:15:18;;;;;;;27.37;22.32;;;;;;;11.95;69.52;99909.17;1736894;79;25491;-81
2021/04/21 08:18:09;;;;;;;31.52;23.38;;;;;;;11.89;69.65;99919.56;1785816;78;25823;-79
2021/04/21 08:20:53;;;;;;;32.95;24.27;;;;;;;11.88;69.97;99915.33;1786081;79;25757;-78
2021/04/21 08:23:21;;;;;;;29.32;22.13;;;;;;;11.89;70.09;99923.49;1784122;78;25773;-76
2021/04/21 08:25:48;;;;;;;29.98;21.70;;;;;;;11.93;70.37;99922.14;1792210;79;25762;-78
2021/04/21 08:28:14;;;;;;;31.37;21.37;;;;;;;12.01;70.37;99914.67;1791597;79;25972;-79
2021/04/21 08:30:53;;;;;;;31.43;22.00;;;;;;;12.11;70.35;99913.85;1793509;78;28014;-76
2021/04/21 08:33:19;;;;;;;29.33;22.43;;;;;;;12.18;70.31;99912.93;1790023;78;25734;-76
2021/04/21 08:35:45;;;;;;;25.43;19.80;;;;;;;12.24;70.28;99913.19;1790937;78;33116;-80
2021/04/21 08:38:11;;;;;;;25.17;17.93;;;;;;;12.27;70.37;99923.29;1789222;78;26404;-82
2021/04/21 08:40:40;;;;;;;31.13;20.50;;;;;;;12.26;69.48;99918.55;1794076;78;30807;-80
2021/04/21 08:43:08;;;;;;;30.30;20.20;;;;;;;12.25;69.69;99920.88;1792566;79;25730;-76
2021/04/21 08:45:36;;;;;;;27.98;21.90;;;;;;;12.35;70.08;99920.55;1791608;78;26374;-76
2021/04/21 08:48:06;;;;;;;27.70;21.95;;;;;;;12.39;69.98;99919.99;1793547;78;25832;-75
2021/04/21 08:50:36;;;;;;;30.77;21.97;;;;;;;12.36;70.01;99921.69;1762966;79;26328;-80
2021/04/21 08:53:07;;;;;;;37.95;23.07;;;;;;;12.44;70.19;99927.30;1792161;78;25295;-80
2021/04/21 08:55:34;;;;;;;32.75;21.23;;;;;;;12.50;69.90;99929.67;1767009;79;25788;-82
2021/04/21 08:58:02;;;;;;;35.10;21.15;;;;;;;12.50;69.65;99929.16;1791897;79;25681;-79
2021/04/21 09:00:28;;;;;;;26.42;20.80;;;;;;;12.51;69.09;99925.53;1794857;78;25371;-77
2021/04/21 09:02:54;;;;;;;30.12;23.22;;;;;;;12.49;68.96;99920.17;1793655;79;26459;-78
2021/04/21 09:05:21;;;;;;;28.40;21.97;;;;;;;12.55;69.28;99924.17;1788510;78;30926;-79
2021/04/21 09:07:47;;;;;;;32.15;25.20;;;;;;;12.61;69.44;99926.03;1788006;78;25744;-80
2021/04/21 09:10:17;;;;;;;32.78;22.10;;;;;;;12.74;69.98;99920.09;1791719;78;25782;-79
2021/04/21 09:12:44;;;;;;;36.83;24.65;;;;;;;12.90;69.73;99917.67;1764552;79;25742;-79
2021/04/21 09:15:12;;;;;;;31.30;22.95;;;;;;;13.01;69.45;99918.48;1792042;78;26930;-78
2021/04/21 09:17:47;;;;;;;31.40;20.90;;;;;;;13.07;69.12;99920.83;1792584;78;25751;-80
2021/04/21 09:20:16;;;;;;;30.90;22.37;;;;;;;13.10;68.92;99920.45;1792587;78;25790;-78
2021/04/21 09:23:10;;;;;;;31.40;21.68;;;;;;;13.15;68.36;99914.12;1792805;78;25864;-83
2021/04/21 09:25:37;;;;;;;31.40;23.42;;;;;;;13.23;68.70;99912.66;1784151;78;25824;-79
2021/04/21 09:28:04;;;;;;;29.52;23.27;;;;;;;13.41;68.81;99909.53;1783708;78;25883;-78
2021/04/21 09:30:31;;;;;;;30.20;23.75;;;;;;;13.53;68.22;99904.53;1784154;78;25853;-75
2021/04/21 09:32:58;;;;;;;31.90;22.02;;;;;;;13.61;67.95;99904.36;1791830;78;26621;-76
2021/04/21 09:35:29;;;;;;;30.30;21.68;;;;;;;13.72;67.85;99905.62;1781295;78;25943;-74
2021/04/21 09:38:09;;;;;;;27.55;21.10;;;;;;;13.88;67.21;99901.33;1783276;79;25710;-79
2021/04/21 09:40:48;;;;;;;30.10;21.20;;;;;;;13.98;67.67;99901.77;1786249;78;25639;-78
2021/04/21 09:43:23;;;;;;;25.43;19.12;;;;;;;14.16;67.14;99890.70;1784667;78;25930;-80
2021/04/21 09:45:57;;;;;;;25.27;18.77;;;;;;;14.32;65.01;99899.19;1785435;79;25808;-81
2021/04/21 09:48:37;;;;;;;23.07;18.60;;;;;;;14.32;65.14;99893.45;1786589;79;25958;-76
2021/04/21 09:51:07;;;;;;;23.85;18.65;;;;;;;14.45;64.94;99893.95;1787781;79;25744;-78
2021/04/21 09:53:37;;;;;;;28.85;20.57;;;;;;;14.56;64.66;99889.94;1787847;79;25797;-73
2021/04/21 09:56:25;;;;;;;27.82;19.67;;;;;;;14.64;63.72;99887.91;1785736;78;26542;-72
2021/04/21 09:58:56;;;;;;;22.90;16.62;;;;;;;14.69;63.69;99885.19;1784322;79;25779;-72
2021/04/21 10:01:38;;;;;;;27.20;17.98;;;;;;;14.82;62.50;99890.44;1783707;78;26457;-73
2021/04/21 10:04:21;;;;;;;23.30;15.53;;;;;;;14.86;61.36;99879.80;1787645;79;25897;-73
2021/04/21 10:06:55;;;;;;;18.25;14.90;;;;;;;14.96;61.59;99881.50;1785475;78;26484;-73
2021/04/21 10:09:25;;;;;;;21.20;15.32;;;;;;;15.10;60.89;99887.55;1784736;79;25809;-74
2021/04/21 10:11:52;;;;;;;28.55;17.35;;;;;;;15.22;60.63;99870.59;1784782;78;25865;-80
2021/04/21 10:14:24;;;;;;;23.70;16.73;;;;;;;15.33;60.66;99869.95;1784972;78;25790;-78
2021/04/21 10:16:54;;;;;;;23.38;15.18;;;;;;;15.43;59.71;99874.78;1779247;78;26524;-77
2021/04/21 10:19:20;;;;;;;21.35;11.08;;;;;;;15.52;58.41;99865.63;1787062;79;25814;-77
2021/04/21 10:21:46;;;;;;;14.43;10.03;;;;;;;15.58;56.94;99862.66;1782408;78;33450;-76
2021/04/21 10:24:12;;;;;;;17.87;12.43;;;;;;;15.62;53.68;99858.09;1782809;78;25767;-81
2021/04/21 10:26:41;;;;;;;17.10;11.40;;;;;;;15.62;55.02;99855.45;1784521;78;25644;-81
2021/04/21 10:29:08;;;;;;;15.32;10.45;;;;;;;15.68;54.51;99863.85;1784202;78;25689;-75
2021/04/21 10:31:33;;;;;;;14.80;10.95;;;;;;;15.65;53.95;99855.54;1784074;78;25843;-81
2021/04/21 10:34:04;;;;;;;21.12;11.85;;;;;;;15.73;53.01;99845.59;1755574;79;32977;-81
2021/04/21 10:36:30;;;;;;;17.80;12.03;;;;;;;15.75;52.87;99854.61;1784617;79;25849;-81
2021/04/21 10:38:58;;;;;;;24.72;12.45;;;;;;;15.77;53.89;99848.63;1782347;78;25764;-81
2021/04/21 10:41:35;;;;;;;18.57;9.95;;;;;;;15.81;54.08;99845.85;1781290;78;25797;-81
2021/04/21 10:44:16;;;;;;;13.60;9.15;;;;;;;15.93;51.67;99851.25;1781003;78;25903;-81
2021/04/21 10:47:02;;;;;;;13.05;8.93;;;;;;;15.97;52.06;99844.03;1782201;78;26398;-81
2021/04/21 10:49:58;;;;;;;13.88;8.68;;;;;;;16.05;51.60;99843.48;1783325;79;26233;-81
2021/04/21 10:52:33;;;;;;;14.95;7.22;;;;;;;16.10;47.51;99834.42;1783045;78;25841;-81
2021/04/21 10:55:10;;;;;;;9.83;6.35;;;;;;;16.10;48.10;99831.27;1782994;79;25860;-76
2021/04/21 10:58:00;;;;;;;14.75;5.87;;;;;;;16.17;49.28;99817.52;1781046;79;26502;-74
2021/04/21 11:00:30;;;;;;;;;;;;;;;16.37;47.02;99822.64;1783431;79;25359;-73
2021/04/21 11:03:11;;;;;;;13.35;6.62;;;;;;;16.44;46.47;99825.21;1783516;79;25657;-74
2021/04/21 11:05:44;;;;;;;12.30;5.50;;;;;;;16.49;44.51;99829.84;1785641;79;25809;-75
2021/04/21 11:08:23;;;;;;;18.27;6.30;;;;;;;16.48;43.56;99826.89;1781661;78;25747;-77
2021/04/21 11:11:04;;;;;;;14.68;6.70;;;;;;;16.43;44.70;99824.92;1786208;79;26506;-76
2021/04/21 11:13:41;;;;;;;15.53;5.42;;;;;;;16.46;44.07;99819.22;1784377;78;25818;-77
2021/04/21 11:16:26;;;;;;;9.78;5.10;;;;;;;16.42;43.52;99820.17;1785601;79;26388;-74
2021/04/21 11:18:52;;;;;;;13.03;5.58;;;;;;;16.42;43.31;99828.57;1786056;78;26195;-76
2021/04/21 11:21:21;;;;;;;11.18;5.47;;;;;;;16.49;42.73;99816.14;1785656;79;25768;-73
2021/04/21 11:24:08;;;;;;;10.65;6.10;;;;;;;16.54;43.72;99809.70;1778309;79;25825;-73
2021/04/21 11:26:48;;;;;;;9.53;5.15;;;;;;;16.52;43.06;99817.02;1756825;79;25815;-76
2021/04/21 11:29:28;;;;;;;10.25;5.58;;;;;;;16.45;42.70;99812.34;1756246;80;25783;-78
2021/04/21 11:31:58;;;;;;;;;;;;;;;16.46;42.86;99804.70;1759802;79;25695;-79
2021/04/21 11:34:35;;;;;;;13.62;5.67;;;;;;;16.46;42.94;99810.50;1755534;79;25752;-79
2021/04/21 11:37:17;;;;;;;20.40;6.55;;;;;;;16.42;43.29;99803.51;1757904;80;25676;-83
2021/04/21 11:39:55;;;;;;;11.83;6.72;;;;;;;16.53;44.01;99800.67;1701405;82;25802;-77
2021/04/21 11:42:32;;;;;;;10.85;5.75;;;;;;;16.63;43.94;99797.03;1704344;82;25839;-81
2021/04/21 11:45:22;;;;;;;13.72;6.28;;;;;;;16.73;44.86;99796.02;1704266;82;25811;-77
2021/04/21 11:48:07;;;;;;;11.00;5.83;;;;;;;16.84;43.63;99787.91;1703435;82;25897;-78
2021/04/21 11:50:40;;;;;;;18.35;7.50;;;;;;;16.90;43.83;99788.34;1703213;82;25853;-76
2021/04/21 11:53:20;;;;;;;12.18;5.75;;;;;;;16.83;42.96;99781.84;1704524;82;25786;-75
2021/04/21 11:55:54;;;;;;;10.32;5.87;;;;;;;16.80;43.73;99785.41;1703087;82;25741;-76
2021/04/21 11:58:28;;;;;;;13.20;6.15;;;;;;;16.87;43.49;99794.07;1706060;82;25823;-76
2021/04/21 12:01:04;;;;;;;13.45;5.87;;;;;;;16.90;42.26;99786.23;1703868;82;25966;-78
2021/04/21 12:03:34;;;;;;;15.10;6.60;;;;;;;16.86;42.57;99780.59;1700976;82;25909;-78
2021/04/21 12:06:03;;;;;;;10.93;5.97;;;;;;;16.85;43.07;99782.40;1703652;82;25861;-78
2021/04/21 12:08:36;;;;;;;10.98;6.62;;;;;;;16.95;42.98;99778.45;1704411;82;25971;-76
2021/04/21 12:11:04;;;;;;;10.05;6.10;;;;;;;16.97;42.58;99784.30;1704415;82;25892;-73